createdAt,value
2019-04-20T00:00:06.674Z,12
2019-04-20T00:01:03.356Z,12
2019-04-20T00:02:08.320Z,12
2019-04-20T00:03:01.716Z,14
2019-04-20T00:04:03.102Z,14
2019-04-20T00:05:03.322Z,14
2019-04-20T00:06:03.518Z,14
2019-04-20T00:07:01.906Z,14
2019-04-20T00:08:09.177Z,14
2019-04-20T00:09:07.414Z,12
2019-04-20T00:10:08.732Z,12
2019-04-20T00:11:10.648Z,12
2019-04-20T00:12:08.913Z,12
2019-04-20T00:13:13.790Z,12
2019-04-20T00:14:08.975Z,12
2019-04-20T00:15:03.259Z,11
2019-04-20T00:16:02.001Z,11
2019-04-20T00:17:02.952Z,11
2019-04-20T00:18:05.031Z,11
2019-04-20T00:19:04.936Z,11
2019-04-20T00:20:09.213Z,11
2019-04-20T00:21:05.645Z,10
2019-04-20T00:22:06.315Z,10
2019-04-20T00:23:02.102Z,10
2019-04-20T00:24:12.947Z,10
2019-04-20T00:25:07.025Z,10
2019-04-20T00:26:12.420Z,10
2019-04-20T00:27:22.154Z,13
2019-04-20T00:28:22.428Z,13
2019-04-20T00:29:22.686Z,13
2019-04-20T06:15:15.377Z,11
2019-04-20T06:16:18.754Z,11
2019-04-20T06:17:27.940Z,11
2019-04-20T06:18:16.737Z,11
2019-04-20T06:20:27.130Z,11
2019-04-20T06:22:28.464Z,14
2019-04-20T06:23:27.271Z,14
2019-04-20T06:25:39.677Z,14
2019-04-20T06:27:21.534Z,11
2019-04-20T06:28:17.355Z,11
2019-04-20T06:29:18.330Z,11
2019-04-20T06:30:19.092Z,11
2019-04-20T06:31:26.606Z,11
2019-04-20T06:32:29.537Z,11
2019-04-20T06:33:37.368Z,12
2019-04-20T06:34:31.067Z,12
2019-04-20T06:35:35.053Z,12
2019-04-20T06:36:29.270Z,12
2019-04-20T06:37:17.944Z,12
2019-04-20T06:39:26.003Z,13
2019-04-20T06:40:37.151Z,13
2019-04-20T06:41:38.944Z,13
2019-04-20T06:42:18.039Z,13
2019-04-20T06:43:19.228Z,13
2019-04-20T06:44:27.619Z,13
2019-04-20T06:45:27.751Z,12
2019-04-20T06:46:22.491Z,12
2019-04-20T06:47:24.854Z,12
2019-04-20T06:48:29.133Z,12
2019-04-20T06:49:31.518Z,12
2019-04-20T06:50:18.699Z,12
2019-04-20T06:51:22.302Z,16
2019-04-20T06:52:25.565Z,16
2019-04-20T06:54:12.461Z,16
2019-04-20T06:55:19.918Z,16
2019-04-20T06:56:19.975Z,11
2019-04-20T06:57:29.199Z,13
2019-04-20T06:58:40.692Z,13
2019-04-20T06:59:21.475Z,13
2019-04-20T07:00:18.071Z,13
2019-04-20T07:01:17.082Z,13
2019-04-20T07:02:33.740Z,13
2019-04-20T07:03:37.736Z,12
2019-04-20T07:04:38.334Z,12
2019-04-20T07:05:19.010Z,12
2019-04-20T07:06:34.899Z,12
2019-04-20T07:07:27.957Z,12
2019-04-20T07:08:41.108Z,14
2019-04-20T07:09:38.664Z,12
2019-04-20T07:10:26.249Z,12
2019-04-20T07:11:25.311Z,12
2019-04-20T07:12:13.029Z,12
2019-04-20T07:13:15.132Z,12
2019-04-20T07:14:08.544Z,13
2019-04-20T07:15:18.916Z,16
2019-04-20T07:16:22.761Z,16
2019-04-20T07:17:35.599Z,16
2019-04-20T07:18:22.996Z,16
2019-04-20T07:19:24.152Z,16
2019-04-20T07:20:19.100Z,16
2019-04-20T07:21:40.565Z,16
2019-04-20T07:22:30.086Z,16
2019-04-20T07:23:26.907Z,16
2019-04-20T07:24:25.297Z,16
2019-04-20T07:25:26.275Z,16
2019-04-20T07:27:22.900Z,13
2019-04-20T07:28:27.757Z,13
2019-04-20T07:29:31.994Z,13
2019-04-20T07:30:12.331Z,13
2019-04-20T07:31:27.776Z,13
2019-04-20T07:32:19.101Z,13
2019-04-20T07:33:15.706Z,14
2019-04-20T07:34:23.398Z,14
2019-04-20T07:36:28.405Z,14
2019-04-20T07:37:51.371Z,14
2019-04-20T07:38:31.260Z,11
2019-04-20T07:39:21.630Z,16
2019-04-20T07:40:21.698Z,16
2019-04-20T07:41:33.126Z,16
2019-04-20T07:42:29.336Z,16
2019-04-20T07:43:19.728Z,16
2019-04-20T07:44:28.066Z,15
2019-04-20T07:46:34.813Z,14
2019-04-20T07:47:33.079Z,14
2019-04-20T07:48:21.183Z,14
2019-04-20T07:49:26.653Z,14
2019-04-20T07:50:17.482Z,13
2019-04-20T07:51:13.484Z,15
2019-04-20T07:52:01.840Z,15
2019-04-20T07:53:20.206Z,15
2019-04-20T07:54:30.122Z,15
2019-04-20T07:55:32.987Z,15
2019-04-20T07:56:28.412Z,14
2019-04-20T07:57:21.538Z,15
2019-04-20T07:58:15.602Z,15
2019-04-20T07:59:14.296Z,15
2019-04-20T08:01:31.391Z,15
2019-04-20T08:04:27.309Z,13
2019-04-20T08:05:18.198Z,13
2019-04-20T08:06:11.594Z,13
2019-04-20T08:07:04.236Z,13
2019-04-20T08:08:18.450Z,14
2019-04-20T08:09:16.263Z,16
2019-04-20T08:10:06.466Z,16
2019-04-20T08:11:13.779Z,16
2019-04-20T08:12:27.572Z,16
2019-04-20T08:13:33.400Z,16
2019-04-20T08:14:24.082Z,15
2019-04-20T08:16:33.247Z,17
2019-04-20T08:17:42.304Z,17
2019-04-20T08:18:29.351Z,17
2019-04-20T08:19:22.979Z,17
2019-04-20T08:20:19.972Z,14
2019-04-20T08:21:22.863Z,15
2019-04-20T08:22:27.071Z,15
2019-04-20T08:23:23.342Z,15
2019-04-20T08:24:20.136Z,15
2019-04-20T08:25:14.309Z,15
2019-04-20T08:26:10.934Z,14
2019-04-20T08:27:06.470Z,15
2019-04-20T08:28:06.388Z,15
2019-04-20T08:29:03.840Z,15
2019-04-20T08:31:18.124Z,15
2019-04-20T08:32:17.873Z,12
2019-04-20T08:33:21.069Z,15
2019-04-20T08:34:27.922Z,15
2019-04-20T08:35:28.809Z,15
2019-04-20T08:37:21.181Z,15
2019-04-20T08:38:52.905Z,14
2019-04-20T08:39:32.414Z,14
2019-04-20T08:41:17.979Z,14
2019-04-20T08:44:41.232Z,14
2019-04-20T08:45:24.098Z,13
2019-04-20T08:46:18.199Z,13
2019-04-20T08:47:27.892Z,13
2019-04-20T08:48:26.270Z,13
2019-04-20T08:49:26.282Z,13
2019-04-20T08:50:22.456Z,14
2019-04-20T08:51:20.921Z,15
2019-04-20T08:52:46.904Z,15
2019-04-20T08:53:27.550Z,15
2019-04-20T08:54:19.212Z,15
2019-04-20T08:55:19.690Z,15
2019-04-20T08:56:17.318Z,14
2019-04-20T08:57:03.725Z,15
2019-04-20T08:58:02.291Z,15
2019-04-20T08:59:02.055Z,15
2019-04-20T09:00:06.581Z,15
2019-04-20T09:01:06.539Z,15
2019-04-20T09:02:05.119Z,16
2019-04-20T09:03:11.203Z,15
2019-04-20T09:04:09.798Z,15
2019-04-20T09:05:10.088Z,15
2019-04-20T09:06:07.349Z,15
2019-04-20T09:07:09.977Z,15
2019-04-20T09:08:12.464Z,18
2019-04-20T09:09:33.536Z,16
2019-04-20T09:11:19.612Z,16
2019-04-20T09:12:14.504Z,16
2019-04-20T09:13:14.290Z,16
2019-04-20T09:14:05.473Z,12
2019-04-20T09:15:03.726Z,14
2019-04-20T09:16:02.131Z,14
2019-04-20T09:17:07.276Z,14
2019-04-20T09:18:05.311Z,14
2019-04-20T09:19:07.606Z,14
2019-04-20T09:20:07.121Z,12
2019-04-20T09:21:09.413Z,13
2019-04-20T09:22:14.749Z,13
2019-04-20T09:23:19.839Z,13
2019-04-20T09:24:30.576Z,13
2019-04-20T09:25:50.315Z,13
2019-04-20T09:26:16.113Z,14
2019-04-20T09:27:15.870Z,17
2019-04-20T09:28:11.583Z,17
2019-04-20T09:29:12.754Z,17
2019-04-20T09:30:17.777Z,17
2019-04-20T09:31:18.486Z,17
2019-04-20T09:32:19.409Z,14
2019-04-20T09:33:25.872Z,13
2019-04-20T09:34:16.115Z,13
2019-04-20T09:35:20.647Z,13
2019-04-20T09:36:17.883Z,13
2019-04-20T09:37:22.034Z,13
2019-04-20T09:38:13.488Z,12
2019-04-20T09:39:11.360Z,16
2019-04-20T09:40:21.306Z,16
2019-04-20T09:41:26.358Z,16
2019-04-20T09:42:02.105Z,16
2019-04-20T09:43:02.405Z,16
2019-04-20T09:44:02.525Z,11
2019-04-20T09:45:04.495Z,15
2019-04-20T09:46:05.050Z,15
2019-04-20T09:47:04.681Z,15
2019-04-20T09:48:02.117Z,15
2019-04-20T09:49:13.147Z,15
2019-04-20T09:50:19.437Z,15
2019-04-20T09:51:21.957Z,14
2019-04-20T09:52:15.715Z,14
2019-04-20T09:53:17.338Z,14
2019-04-20T09:54:18.902Z,14
2019-04-20T09:55:14.693Z,14
2019-04-20T09:56:16.896Z,14
2019-04-20T09:57:16.089Z,15
2019-04-20T09:58:14.857Z,15
2019-04-20T09:59:23.962Z,15
2019-04-20T10:00:18.288Z,15
2019-04-20T10:01:13.571Z,15
2019-04-20T10:02:08.753Z,14
2019-04-20T10:03:02.367Z,16
2019-04-20T10:04:01.742Z,16
2019-04-20T10:05:02.093Z,16
2019-04-20T10:06:03.392Z,16
2019-04-20T10:07:07.897Z,16
2019-04-20T10:08:04.931Z,13
2019-04-20T10:09:03.796Z,16
2019-04-20T10:10:15.831Z,16
2019-04-20T10:11:03.465Z,16
2019-04-20T10:12:03.623Z,16
2019-04-20T10:13:02.495Z,16
2019-04-20T10:14:02.057Z,12
2019-04-20T10:15:07.929Z,15
2019-04-20T10:16:02.025Z,15
2019-04-20T10:17:02.286Z,15
2019-04-20T10:18:01.660Z,15
2019-04-20T10:19:02.793Z,15
2019-04-20T10:20:09.633Z,13
2019-04-20T10:21:02.231Z,13
2019-04-20T10:22:02.540Z,13
2019-04-20T10:23:02.675Z,13
2019-04-20T10:24:02.839Z,13
2019-04-20T10:25:02.651Z,13
2019-04-20T10:26:02.610Z,13
2019-04-20T10:27:03.064Z,14
2019-04-20T10:28:01.531Z,14
2019-04-20T10:29:01.784Z,14
2019-04-20T10:30:04.740Z,14
2019-04-20T10:31:02.382Z,14
2019-04-20T10:32:05.524Z,12
2019-04-20T10:33:01.685Z,15
2019-04-20T10:34:01.959Z,15
2019-04-20T10:35:02.506Z,15
2019-04-20T10:36:03.478Z,15
2019-04-20T10:37:03.764Z,15
2019-04-20T10:38:01.539Z,12
2019-04-20T10:39:02.406Z,11
2019-04-20T10:40:02.903Z,11
2019-04-20T10:41:11.679Z,11
2019-04-20T10:42:04.177Z,11
2019-04-20T10:43:03.143Z,11
2019-04-20T10:44:02.790Z,13
2019-04-20T10:45:02.874Z,12
2019-04-20T10:46:02.713Z,12
2019-04-20T10:47:02.975Z,12
2019-04-20T10:48:03.407Z,12
2019-04-20T10:49:04.242Z,12
2019-04-20T10:50:02.818Z,13
2019-04-20T10:51:03.118Z,13
2019-04-20T10:52:01.935Z,13
2019-04-20T10:53:01.724Z,13
2019-04-20T10:54:02.489Z,13
2019-04-20T10:55:02.881Z,13
2019-04-20T10:56:03.440Z,12
2019-04-20T10:57:01.589Z,14
2019-04-20T10:58:01.790Z,14
2019-04-20T10:59:03.381Z,14
2019-04-20T11:00:05.732Z,14
2019-04-20T11:01:02.114Z,14
2019-04-20T11:02:03.515Z,7
2019-04-20T11:03:01.732Z,13
2019-04-20T11:04:02.988Z,13
2019-04-20T11:05:02.561Z,13
2019-04-20T11:06:02.790Z,13
2019-04-20T11:07:02.832Z,13
2019-04-20T11:08:02.211Z,11
2019-04-20T11:09:02.565Z,12
2019-04-20T11:10:13.361Z,12
2019-04-20T11:11:11.805Z,12
2019-04-20T11:12:02.240Z,12
2019-04-20T11:13:03.198Z,12
2019-04-20T11:14:08.281Z,8
2019-04-20T11:15:02.933Z,13
2019-04-20T11:16:02.183Z,13
2019-04-20T11:17:02.875Z,13
2019-04-20T11:18:01.936Z,13
2019-04-20T11:19:03.302Z,13
2019-04-20T11:20:03.393Z,14
2019-04-20T11:21:01.886Z,12
2019-04-20T11:22:02.189Z,12
2019-04-20T11:23:02.331Z,12
2019-04-20T11:24:02.505Z,12
2019-04-20T11:25:02.428Z,12
2019-04-20T11:26:02.214Z,10
2019-04-20T11:27:02.381Z,12
2019-04-20T11:28:01.920Z,12
2019-04-20T11:29:02.163Z,12
2019-04-20T11:30:02.529Z,12
2019-04-20T11:31:02.279Z,12
2019-04-20T11:32:01.529Z,13
2019-04-20T11:33:02.316Z,15
2019-04-20T11:34:02.027Z,15
2019-04-20T11:35:07.615Z,15
2019-04-20T11:36:03.230Z,15
2019-04-20T11:37:01.665Z,15
2019-04-20T11:38:02.938Z,14
2019-04-20T11:39:03.053Z,15
2019-04-20T11:40:03.249Z,15
2019-04-20T11:41:11.175Z,15
2019-04-20T11:42:01.828Z,15
2019-04-20T11:43:02.037Z,15
2019-04-20T11:44:02.300Z,15
2019-04-20T11:45:02.766Z,14
2019-04-20T11:46:02.785Z,14
2019-04-20T11:47:02.894Z,14
2019-04-20T11:48:03.282Z,14
2019-04-20T11:49:03.658Z,14
2019-04-20T11:50:01.797Z,12
2019-04-20T11:51:03.403Z,14
2019-04-20T11:52:02.022Z,14
2019-04-20T11:53:03.450Z,14
2019-04-20T11:54:01.496Z,14
2019-04-20T11:55:02.440Z,14
2019-04-20T11:56:02.564Z,9
2019-04-20T11:57:03.607Z,12
2019-04-20T11:58:01.801Z,12
2019-04-20T11:59:02.966Z,12
2019-04-20T12:00:03.598Z,12
2019-04-20T12:01:10.201Z,12
2019-04-20T12:02:04.648Z,11
2019-04-20T12:03:11.191Z,14
2019-04-20T12:04:13.032Z,14
2019-04-20T12:05:13.110Z,14
2019-04-20T12:06:04.958Z,14
2019-04-20T12:07:02.091Z,14
2019-04-20T12:08:02.978Z,9
2019-04-20T12:09:03.100Z,12
2019-04-20T12:10:09.132Z,12
2019-04-20T12:11:18.794Z,12
2019-04-20T12:12:15.644Z,12
2019-04-20T12:13:01.858Z,12
2019-04-20T12:14:02.739Z,11
2019-04-20T12:15:01.989Z,12
2019-04-20T12:16:03.450Z,12
2019-04-20T12:17:03.680Z,12
2019-04-20T12:18:01.976Z,12
2019-04-20T12:19:02.239Z,12
2019-04-20T12:20:01.831Z,10
2019-04-20T12:21:03.035Z,10
2019-04-20T12:22:03.481Z,10
2019-04-20T12:23:02.328Z,10
2019-04-20T12:24:02.453Z,10
2019-04-20T12:25:02.534Z,10
2019-04-20T12:26:02.078Z,10
2019-04-20T12:27:02.888Z,11
2019-04-20T12:28:03.664Z,11
2019-04-20T12:29:01.621Z,11
2019-04-20T12:30:01.981Z,11
2019-04-20T12:31:04.034Z,11
2019-04-20T12:32:05.501Z,11
2019-04-20T12:33:03.890Z,11
2019-04-20T12:34:02.268Z,11
2019-04-20T12:35:02.614Z,11
2019-04-20T12:36:02.513Z,11
2019-04-20T12:37:02.913Z,11
2019-04-20T12:38:03.079Z,9
2019-04-20T12:39:03.423Z,12
2019-04-20T12:40:03.068Z,12
2019-04-20T12:41:04.393Z,12
2019-04-20T12:42:04.703Z,12
2019-04-20T12:43:02.138Z,12
2019-04-20T12:44:03.782Z,9
2019-04-20T12:45:01.801Z,10
2019-04-20T12:46:02.273Z,10
2019-04-20T12:47:02.127Z,10
2019-04-20T12:48:03.785Z,10
2019-04-20T12:49:01.872Z,10
2019-04-20T12:50:01.887Z,9
2019-04-20T12:51:02.159Z,13
2019-04-20T12:52:05.120Z,13
2019-04-20T12:53:02.314Z,13
2019-04-20T12:54:02.575Z,13
2019-04-20T12:55:04.640Z,13
2019-04-20T12:56:02.342Z,10
2019-04-20T12:57:02.662Z,11
2019-04-20T12:58:02.841Z,11
2019-04-20T12:59:01.761Z,11
2019-04-20T13:00:03.635Z,11
2019-04-20T13:01:02.653Z,11
2019-04-20T13:02:01.705Z,9
2019-04-20T13:03:03.258Z,9
2019-04-20T13:04:04.494Z,9
2019-04-20T13:05:03.572Z,9
2019-04-20T13:06:03.734Z,9
2019-04-20T13:07:01.845Z,9
2019-04-20T13:08:04.143Z,7
2019-04-20T13:09:03.769Z,11
2019-04-20T13:10:03.876Z,11
2019-04-20T13:11:02.558Z,11
2019-04-20T13:12:05.537Z,11
2019-04-20T13:13:02.566Z,11
2019-04-20T13:14:02.186Z,7
2019-04-20T13:15:02.423Z,7
2019-04-20T13:16:02.621Z,7
2019-04-20T13:17:02.219Z,7
2019-04-20T13:18:01.454Z,7
2019-04-20T13:19:01.764Z,7
2019-04-20T13:20:01.564Z,6
2019-04-20T13:21:02.968Z,8
2019-04-20T13:22:03.098Z,8
2019-04-20T13:23:03.646Z,8
2019-04-20T13:24:03.244Z,8
2019-04-20T13:25:03.207Z,8
2019-04-20T13:26:05.263Z,7
2019-04-20T13:27:02.645Z,11
2019-04-20T13:28:03.075Z,11
2019-04-20T13:29:02.380Z,11
2019-04-20T13:30:03.218Z,11
2019-04-20T13:31:06.122Z,11
2019-04-20T13:32:02.473Z,8
2019-04-20T13:33:01.776Z,8
2019-04-20T13:34:01.825Z,8
2019-04-20T13:35:02.487Z,8
2019-04-20T13:36:02.318Z,8
2019-04-20T13:37:02.302Z,8
2019-04-20T13:38:02.367Z,6
2019-04-20T13:39:02.022Z,9
2019-04-20T13:40:03.048Z,9
2019-04-20T13:41:01.974Z,9
2019-04-20T13:42:09.660Z,9
2019-04-20T13:43:01.758Z,9
2019-04-20T13:44:03.176Z,9
2019-04-20T13:45:03.017Z,8
2019-04-20T13:46:02.914Z,8
2019-04-20T13:47:03.090Z,8
2019-04-20T13:48:01.655Z,8
2019-04-20T13:49:03.008Z,8
2019-04-20T13:50:03.307Z,6
2019-04-20T13:51:02.453Z,9
2019-04-20T13:52:02.515Z,9
2019-04-20T13:53:03.266Z,9
2019-04-20T13:54:06.316Z,9
2019-04-20T13:55:02.437Z,9
2019-04-20T13:56:01.732Z,9
2019-04-20T13:57:01.901Z,8
2019-04-20T13:58:02.373Z,8
2019-04-20T13:59:02.465Z,8
2019-04-20T14:00:04.223Z,8
2019-04-20T14:01:02.968Z,8
2019-04-20T14:02:02.541Z,6
2019-04-20T14:03:02.822Z,8
2019-04-20T14:04:01.724Z,8
2019-04-20T14:05:02.756Z,8
2019-04-20T14:06:02.619Z,8
2019-04-20T14:07:03.381Z,8
2019-04-20T14:08:03.164Z,7
2019-04-20T14:09:01.707Z,9
2019-04-20T14:10:01.952Z,9
2019-04-20T14:11:03.151Z,9
2019-04-20T14:12:14.050Z,9
2019-04-20T14:13:08.191Z,9
2019-04-20T14:14:05.276Z,7
2019-04-20T14:15:02.903Z,9
2019-04-20T14:16:01.438Z,9
2019-04-20T14:17:03.167Z,9
2019-04-20T14:18:02.349Z,9
2019-04-20T14:19:02.982Z,9
2019-04-20T14:20:07.369Z,6
2019-04-20T14:21:02.509Z,9
2019-04-20T14:22:02.144Z,9
2019-04-20T14:23:01.560Z,9
2019-04-20T14:24:04.167Z,9
2019-04-20T14:25:03.014Z,9
2019-04-20T14:26:03.117Z,7
2019-04-20T14:27:03.351Z,8
2019-04-20T14:28:02.848Z,8
2019-04-20T14:29:02.975Z,8
2019-04-20T14:30:03.370Z,8
2019-04-20T14:31:02.037Z,8
2019-04-20T14:32:04.180Z,7
2019-04-20T14:33:03.025Z,9
2019-04-20T14:34:02.666Z,9
2019-04-20T14:35:03.141Z,9
2019-04-20T14:36:03.165Z,9
2019-04-20T14:37:02.546Z,9
2019-04-20T14:38:03.786Z,9
2019-04-20T14:39:02.442Z,9
2019-04-20T14:40:01.826Z,9
2019-04-20T14:41:02.286Z,9
2019-04-20T14:42:02.491Z,9
2019-04-20T14:43:03.461Z,9
2019-04-20T14:44:03.606Z,9
2019-04-20T14:45:06.993Z,10
2019-04-20T14:46:02.939Z,10
2019-04-20T14:47:01.968Z,10
2019-04-20T14:48:02.109Z,10
2019-04-20T14:49:02.938Z,10
2019-04-20T14:50:03.119Z,10
2019-04-20T14:51:01.725Z,8
2019-04-20T14:52:02.837Z,8
2019-04-20T14:53:01.889Z,8
2019-04-20T14:54:03.253Z,8
2019-04-20T14:55:03.638Z,8
2019-04-20T14:56:01.834Z,8
2019-04-20T14:57:01.673Z,8
2019-04-20T14:58:01.936Z,8
2019-04-20T14:59:02.307Z,8
2019-04-20T15:00:03.637Z,8
2019-04-20T15:01:02.623Z,8
2019-04-20T15:02:02.821Z,8
2019-04-20T15:03:01.972Z,8
2019-04-20T15:04:06.904Z,8
2019-04-20T15:05:03.359Z,8
2019-04-20T15:06:03.039Z,8
2019-04-20T15:07:02.466Z,8
2019-04-20T15:08:02.756Z,8
2019-04-20T15:09:03.060Z,9
2019-04-20T15:10:04.803Z,9
2019-04-20T15:11:02.973Z,9
2019-04-20T15:12:02.954Z,9
2019-04-20T15:13:04.577Z,9
2019-04-20T15:14:02.687Z,9
2019-04-20T15:15:03.011Z,8
2019-04-20T15:16:02.382Z,8
2019-04-20T15:17:02.535Z,8
2019-04-20T15:18:01.598Z,8
2019-04-20T15:19:03.042Z,8
2019-04-20T15:20:03.405Z,8
2019-04-20T15:21:03.691Z,10
2019-04-20T15:22:01.541Z,10
2019-04-20T15:23:01.698Z,10
2019-04-20T15:24:01.911Z,10
2019-04-20T15:25:03.278Z,10
2019-04-20T15:26:02.487Z,10
2019-04-20T15:27:02.529Z,8
2019-04-20T15:28:02.754Z,8
2019-04-20T15:29:02.182Z,8
2019-04-20T15:30:02.711Z,8
2019-04-20T15:31:02.446Z,8
2019-04-20T15:32:02.020Z,8
2019-04-20T15:33:03.123Z,8
2019-04-20T15:34:03.312Z,8
2019-04-20T15:35:03.020Z,8
2019-04-20T15:36:02.195Z,8
2019-04-20T15:37:02.525Z,8
2019-04-20T15:38:02.916Z,8
2019-04-20T15:39:03.048Z,8
2019-04-20T15:40:01.557Z,8
2019-04-20T15:41:03.025Z,8
2019-04-20T15:42:03.244Z,8
2019-04-20T15:43:11.359Z,8
2019-04-20T15:44:01.727Z,8
2019-04-20T15:45:03.291Z,8
2019-04-20T15:46:03.295Z,8
2019-04-20T15:47:03.656Z,8
2019-04-20T15:48:03.726Z,8
2019-04-20T15:49:02.011Z,8
2019-04-20T15:50:02.288Z,8
2019-04-20T15:51:02.044Z,8
2019-04-20T15:52:03.799Z,8
2019-04-20T15:53:03.914Z,8
2019-04-20T15:54:01.960Z,8
2019-04-20T15:55:11.800Z,8
2019-04-20T15:56:04.945Z,10
2019-04-20T15:57:08.362Z,8
2019-04-20T15:58:04.330Z,8
2019-04-20T15:59:02.236Z,8
2019-04-20T16:00:04.547Z,8
2019-04-20T16:01:02.693Z,8
2019-04-20T16:02:03.135Z,8
2019-04-20T16:03:03.341Z,9
2019-04-20T16:04:03.645Z,9
2019-04-20T16:05:03.785Z,9
2019-04-20T16:06:03.109Z,9
2019-04-20T16:07:03.122Z,9
2019-04-20T16:08:05.211Z,8
2019-04-20T16:09:02.374Z,9
2019-04-20T16:10:03.234Z,9
2019-04-20T16:11:04.635Z,9
2019-04-20T16:12:02.675Z,9
2019-04-20T16:13:15.573Z,9
2019-04-20T16:14:03.392Z,9
2019-04-20T16:15:02.085Z,9
2019-04-20T16:16:03.532Z,9
2019-04-20T16:17:05.651Z,9
2019-04-20T16:18:03.013Z,9
2019-04-20T16:19:06.199Z,9
2019-04-20T16:20:08.213Z,9
2019-04-20T16:21:07.948Z,9
2019-04-20T16:22:03.699Z,9
2019-04-20T16:23:02.747Z,9
2019-04-20T16:24:01.912Z,9
2019-04-20T16:25:03.471Z,9
2019-04-20T16:26:03.653Z,10
2019-04-20T16:27:02.690Z,10
2019-04-20T16:28:01.794Z,10
2019-04-20T16:29:02.077Z,10
2019-04-20T16:30:02.412Z,10
2019-04-20T16:31:01.615Z,10
2019-04-20T16:32:02.535Z,8
2019-04-20T16:33:02.799Z,10
2019-04-20T16:34:03.230Z,10
2019-04-20T16:35:02.746Z,10
2019-04-20T16:36:02.623Z,10
2019-04-20T16:37:02.366Z,10
2019-04-20T16:38:02.553Z,8
2019-04-20T16:39:03.580Z,11
2019-04-20T16:40:04.147Z,11
2019-04-20T16:41:02.221Z,11
2019-04-20T16:42:02.403Z,11
2019-04-20T16:43:02.641Z,11
2019-04-20T16:44:02.966Z,8
2019-04-20T16:45:01.652Z,11
2019-04-20T16:46:01.910Z,11
2019-04-20T16:47:02.085Z,11
2019-04-20T16:48:03.392Z,11
2019-04-20T16:49:01.565Z,11
2019-04-20T16:50:01.836Z,8
2019-04-20T16:51:02.844Z,10
2019-04-20T16:52:03.021Z,10
2019-04-20T16:53:01.445Z,10
2019-04-20T16:54:01.692Z,10
2019-04-20T16:55:02.204Z,10
2019-04-20T16:56:02.895Z,8
2019-04-20T16:57:02.649Z,10
2019-04-20T16:58:01.780Z,10
2019-04-20T16:59:08.180Z,10
2019-04-20T17:00:05.444Z,10
2019-04-20T17:01:03.380Z,10
2019-04-20T17:02:02.468Z,8
2019-04-20T17:03:02.631Z,10
2019-04-20T17:04:07.173Z,10
2019-04-20T17:05:03.042Z,10
2019-04-20T17:06:06.626Z,10
2019-04-20T17:07:02.465Z,10
2019-04-20T17:08:02.674Z,9
2019-04-20T17:09:02.897Z,9
2019-04-20T17:10:02.297Z,9
2019-04-20T17:11:03.378Z,9
2019-04-20T17:12:03.582Z,9
2019-04-20T17:13:02.281Z,9
2019-04-20T17:14:03.527Z,9
2019-04-20T17:15:01.779Z,11
2019-04-20T17:16:02.269Z,11
2019-04-20T17:17:02.288Z,11
2019-04-20T17:18:01.607Z,11
2019-04-20T17:19:01.793Z,11
2019-04-20T17:20:02.059Z,6
2019-04-20T17:21:07.256Z,12
2019-04-20T17:22:03.596Z,12
2019-04-20T17:23:03.821Z,12
2019-04-20T17:24:01.822Z,12
2019-04-20T17:25:02.241Z,12
2019-04-20T17:26:02.262Z,9
2019-04-20T17:27:03.195Z,11
2019-04-20T17:28:02.584Z,11
2019-04-20T17:29:02.080Z,11
2019-04-20T17:30:03.211Z,11
2019-04-20T17:31:02.940Z,11
2019-04-20T17:32:03.149Z,10
2019-04-20T17:33:02.363Z,12
2019-04-20T17:34:17.195Z,12
2019-04-20T17:36:09.990Z,12
2019-04-20T17:37:02.328Z,12
2019-04-20T17:38:02.806Z,9
2019-04-20T17:39:07.824Z,9
2019-04-20T17:40:14.333Z,9
2019-04-20T17:41:16.706Z,9
2019-04-20T17:42:17.283Z,9
2019-04-20T17:43:09.299Z,9
2019-04-20T17:44:19.872Z,5
2019-04-20T17:45:08.567Z,10
2019-04-20T17:46:10.117Z,10
2019-04-20T17:47:21.438Z,10
2019-04-20T17:48:15.303Z,10
2019-04-20T17:49:17.656Z,10
2019-04-20T17:50:20.149Z,8
2019-04-20T17:51:22.980Z,10
2019-04-20T17:52:26.680Z,10
2019-04-20T17:53:14.872Z,10
2019-04-20T17:54:06.429Z,10
2019-04-20T17:55:03.412Z,10
2019-04-20T17:56:03.576Z,8
2019-04-20T17:57:02.330Z,11
2019-04-20T17:58:05.774Z,11
2019-04-20T17:59:02.108Z,11
2019-04-20T18:00:07.672Z,11
2019-04-20T18:01:03.616Z,11
2019-04-20T18:02:14.512Z,11
2019-04-20T18:03:18.598Z,8
2019-04-20T18:05:25.625Z,8
2019-04-20T18:06:20.882Z,8
2019-04-20T18:07:18.228Z,8
2019-04-20T18:08:25.398Z,11
2019-04-20T18:09:24.929Z,10
2019-04-20T18:10:22.507Z,10
2019-04-20T18:11:09.168Z,10
2019-04-20T18:12:06.737Z,10
2019-04-20T18:13:07.041Z,10
2019-04-20T18:14:22.909Z,8
2019-04-20T18:15:23.068Z,8
2019-04-20T18:16:22.412Z,8
2019-04-20T18:17:17.726Z,8
2019-04-20T18:18:20.142Z,8
2019-04-20T18:19:09.899Z,8
2019-04-20T18:20:03.222Z,11
2019-04-20T18:21:03.024Z,11
2019-04-20T18:22:01.910Z,11
2019-04-20T18:23:02.558Z,11
2019-04-20T18:24:05.292Z,11
2019-04-20T18:25:19.193Z,11
2019-04-20T18:26:22.727Z,10
2019-04-20T18:27:24.824Z,11
2019-04-20T18:28:15.178Z,11
2019-04-20T18:29:23.980Z,11
2019-04-20T18:30:18.943Z,11
2019-04-20T18:31:05.326Z,11
2019-04-20T18:32:02.003Z,9
2019-04-20T18:33:03.184Z,10
2019-04-20T18:34:07.026Z,10
2019-04-20T18:35:04.535Z,10
2019-04-20T18:36:02.565Z,10
2019-04-20T18:37:06.447Z,10
2019-04-20T18:38:07.691Z,12
2019-04-20T18:39:07.947Z,11
2019-04-20T18:40:06.000Z,11
2019-04-20T18:41:07.356Z,11
2019-04-20T18:42:11.107Z,11
2019-04-20T18:43:08.762Z,11
2019-04-20T18:44:04.515Z,12
2019-04-20T18:45:16.070Z,11
2019-04-20T18:46:20.285Z,11
2019-04-20T18:47:23.692Z,11
2019-04-20T18:48:15.808Z,11
2019-04-20T18:49:18.339Z,11
2019-04-20T18:50:10.522Z,9
2019-04-20T18:51:02.182Z,12
2019-04-20T18:52:03.798Z,12
2019-04-20T18:53:01.644Z,12
2019-04-20T18:54:08.279Z,12
2019-04-20T18:55:08.835Z,12
2019-04-20T18:56:04.202Z,6
2019-04-20T18:57:01.770Z,12
2019-04-20T18:58:01.911Z,12
2019-04-20T18:59:03.102Z,12
2019-04-20T19:00:04.638Z,12
2019-04-20T19:01:03.080Z,12
2019-04-20T19:02:05.412Z,9
2019-04-20T19:03:11.211Z,12
2019-04-20T19:04:03.669Z,12
2019-04-20T19:05:04.839Z,12
2019-04-20T19:06:02.271Z,12
2019-04-20T19:07:03.639Z,12
2019-04-20T19:08:06.221Z,12
2019-04-20T19:09:02.913Z,12
2019-04-20T19:10:11.207Z,12
2019-04-20T19:11:07.626Z,12
2019-04-20T19:12:05.640Z,12
2019-04-20T19:13:04.341Z,12
2019-04-20T19:14:10.287Z,11
2019-04-20T19:15:20.751Z,12
2019-04-20T19:16:15.333Z,12
2019-04-20T19:17:11.100Z,12
2019-04-20T19:18:11.797Z,12
2019-04-20T19:19:15.065Z,12
2019-04-20T19:20:03.555Z,11
2019-04-20T19:21:03.349Z,12
2019-04-20T19:22:02.024Z,12
2019-04-20T19:23:02.273Z,12
2019-04-20T19:24:07.584Z,12
2019-04-20T19:25:02.218Z,12
2019-04-20T19:26:08.740Z,10
2019-04-20T19:27:08.059Z,13
2019-04-20T19:28:04.707Z,13
2019-04-20T19:29:12.084Z,13
2019-04-20T19:30:14.893Z,13
2019-04-20T19:31:15.687Z,13
2019-04-20T19:32:21.117Z,10
2019-04-20T19:33:14.318Z,12
2019-04-20T19:34:15.265Z,12
2019-04-20T19:35:23.587Z,12
2019-04-20T19:36:15.443Z,12
2019-04-20T19:37:14.329Z,12
2019-04-20T19:38:10.434Z,11
2019-04-20T19:39:19.442Z,13
2019-04-20T19:40:10.866Z,13
2019-04-20T19:41:18.279Z,13
2019-04-20T19:42:18.135Z,13
2019-04-20T19:43:14.725Z,13
2019-04-20T19:44:13.155Z,11
2019-04-20T19:45:31.594Z,13
2019-04-20T19:47:21.064Z,13
2019-04-20T19:48:17.662Z,13
2019-04-20T19:49:11.293Z,13
2019-04-20T19:50:31.571Z,11
2019-04-20T19:51:24.147Z,11
2019-04-20T19:52:30.917Z,11
2019-04-20T19:54:24.219Z,11
2019-04-20T19:55:16.207Z,11
2019-04-20T19:56:16.708Z,11
2019-04-20T19:57:22.089Z,14
2019-04-20T19:58:16.314Z,14
2019-04-20T19:59:10.967Z,14
2019-04-20T20:00:05.560Z,14
2019-04-20T20:01:03.234Z,14
2019-04-20T20:02:03.550Z,11
2019-04-20T20:03:03.607Z,11
2019-04-20T20:04:05.834Z,11
2019-04-20T20:05:07.170Z,11
2019-04-20T20:06:01.853Z,11
2019-04-20T20:07:05.520Z,11
2019-04-20T20:08:11.463Z,11
2019-04-20T20:09:06.726Z,13
2019-04-20T20:10:05.848Z,13
2019-04-20T20:11:03.617Z,13
2019-04-20T20:12:03.680Z,13
2019-04-20T20:13:04.118Z,13
2019-04-20T20:14:04.312Z,11
2019-04-20T20:15:06.461Z,12
2019-04-20T20:16:10.582Z,12
2019-04-20T20:17:19.823Z,12
2019-04-20T20:18:27.833Z,12
2019-04-20T20:19:10.532Z,12
2019-04-20T20:20:30.767Z,11
2019-04-20T20:21:16.171Z,13
2019-04-20T20:22:13.220Z,13
2019-04-20T20:23:02.445Z,13
2019-04-20T20:24:01.990Z,13
2019-04-20T20:25:03.162Z,13
2019-04-20T20:26:03.833Z,10
2019-04-20T20:27:07.487Z,14
2019-04-20T20:28:14.578Z,14
2019-04-20T20:29:14.549Z,14
2019-04-20T20:30:11.712Z,14
2019-04-20T20:31:12.598Z,14